createdAt,value
2022-12-11T00:02:07.587Z,0.99
2022-12-11T00:04:35.258Z,1.19
2022-12-11T00:07:02.180Z,0.94
2022-12-11T00:12:25.980Z,0.82
2022-12-11T00:14:55.678Z,1.00
2022-12-11T00:17:23.175Z,0.60
2022-12-11T00:19:50.532Z,0.61
2022-12-11T00:22:18.470Z,0.62
2022-12-11T00:24:49.040Z,0.60
2022-12-11T00:27:16.075Z,0.65
2022-12-11T00:29:44.922Z,0.47
2022-12-11T00:32:14.474Z,0.28
2022-12-11T00:34:42.517Z,0.46
2022-12-11T00:37:10.068Z,0.80
2022-12-11T00:39:39.035Z,0.53
2022-12-11T00:42:06.506Z,0.55
2022-12-11T00:47:23.854Z,0.36
2022-12-11T00:49:54.318Z,0.80
2022-12-11T00:52:21.639Z,0.59
2022-12-11T00:54:57.946Z,1.20
2022-12-11T00:57:24.438Z,0.70
2022-12-11T00:59:51.313Z,0.43
2022-12-11T01:02:18.810Z,0.41
2022-12-11T01:04:45.772Z,0.26
2022-12-11T01:07:12.677Z,0.18
2022-12-11T01:09:41.016Z,0.23
2022-12-11T01:12:07.918Z,0.46
2022-12-11T01:14:34.965Z,0.66
2022-12-11T01:19:51.852Z,0.07
2022-12-11T01:22:19.352Z,0.09
2022-12-11T01:24:46.973Z,0.06
2022-12-11T01:27:16.932Z,0.15
2022-12-11T01:29:48.447Z,0.69
2022-12-11T01:32:22.442Z,1.37
2022-12-11T01:34:50.137Z,1.23
2022-12-11T01:37:17.661Z,0.91
2022-12-11T01:39:44.663Z,0.93
2022-12-11T01:42:18.661Z,0.96
2022-12-11T01:44:52.858Z,0.94
2022-12-11T01:47:19.829Z,0.70
2022-12-11T01:49:49.005Z,1.00
2022-12-11T01:52:23.091Z,0.46
2022-12-11T01:54:57.312Z,0.35
2022-12-11T01:57:28.119Z,-0.02
2022-12-11T01:59:57.934Z,-0.16
2022-12-11T02:02:29.268Z,-0.08
2022-12-11T02:04:56.831Z,0.04
2022-12-11T02:07:23.905Z,-0.02
2022-12-11T02:09:50.800Z,-0.30
2022-12-11T02:12:28.704Z,-0.05
2022-12-11T02:14:56.397Z,-0.10
2022-12-11T02:17:25.555Z,-0.23
2022-12-11T02:19:52.464Z,-0.28
2022-12-11T02:22:21.359Z,-0.34
2022-12-11T02:24:52.838Z,-0.06
2022-12-11T02:27:21.503Z,-0.08
2022-12-11T02:29:49.080Z,-0.20
2022-12-11T02:32:16.060Z,-0.10
2022-12-11T02:34:44.612Z,-0.15
2022-12-11T02:37:12.898Z,-0.14
2022-12-11T02:39:39.900Z,-0.26
2022-12-11T02:44:36.783Z,0.23
2022-12-11T02:47:10.961Z,0.26
2022-12-11T02:49:37.921Z,0.67
2022-12-11T02:52:07.355Z,0.87
2022-12-11T02:54:36.342Z,-0.01
2022-12-11T02:57:10.709Z,-0.15
2022-12-11T02:59:37.621Z,-0.27
2022-12-11T03:02:06.601Z,-0.03
2022-12-11T03:04:34.140Z,0.06
2022-12-11T03:07:01.246Z,0.55
2022-12-11T03:09:28.184Z,0.42
2022-12-11T03:11:58.664Z,1.61
2022-12-11T03:14:25.586Z,1.21
2022-12-11T03:16:53.127Z,1.32
2022-12-11T03:19:21.997Z,0.63
2022-12-11T03:21:51.458Z,0.91
2022-12-11T03:24:18.933Z,1.44
2022-12-11T03:26:47.770Z,1.90
2022-12-11T03:29:14.657Z,1.23
2022-12-11T03:31:42.067Z,1.17
2022-12-11T03:34:09.229Z,1.08
2022-12-11T03:36:36.668Z,0.52
2022-12-11T03:39:07.372Z,0.24
2022-12-11T03:41:35.009Z,0.07
2022-12-11T03:44:02.871Z,0.22
2022-12-11T03:46:29.843Z,0.13
2022-12-11T03:48:56.339Z,0.02
2022-12-11T03:51:23.333Z,-0.02
2022-12-11T03:53:50.500Z,-0.15
2022-12-11T03:56:17.252Z,-0.13
2022-12-11T03:58:47.257Z,-0.11
2022-12-11T04:01:21.390Z,-0.01
2022-12-11T04:03:48.535Z,0.37
2022-12-11T04:06:18.419Z,0.68
2022-12-11T04:08:45.970Z,0.95
2022-12-11T04:11:15.491Z,0.56
2022-12-11T04:14:02.948Z,1.09
2022-12-11T04:16:48.892Z,1.79
2022-12-11T04:22:29.128Z,3.49
2022-12-11T04:25:03.116Z,3.59
2022-12-11T04:27:33.972Z,3.72
2022-12-11T04:30:01.288Z,3.85
2022-12-11T04:32:29.564Z,3.46
2022-12-11T04:34:57.402Z,3.85
2022-12-11T04:37:24.444Z,3.28
2022-12-11T04:39:51.436Z,3.57
2022-12-11T04:42:19.017Z,3.33
2022-12-11T04:44:48.862Z,3.02
2022-12-11T04:47:16.200Z,3.41
2022-12-11T04:49:44.035Z,2.85
2022-12-11T04:52:17.820Z,3.12
2022-12-11T04:54:44.857Z,2.71
2022-12-11T04:57:11.923Z,3.53
2022-12-11T04:59:39.438Z,2.87
2022-12-11T05:02:08.195Z,3.00
2022-12-11T05:04:35.191Z,2.17
2022-12-11T05:07:03.840Z,2.21
2022-12-11T05:09:30.809Z,2.33
2022-12-11T05:11:57.910Z,2.60
2022-12-11T05:14:25.322Z,2.08
2022-12-11T05:16:52.017Z,2.62
2022-12-11T05:19:22.944Z,2.52
2022-12-11T05:21:55.493Z,2.95
2022-12-11T05:24:25.468Z,2.52
2022-12-11T05:26:53.080Z,2.62
2022-12-11T05:29:25.161Z,1.78
2022-12-11T05:31:54.140Z,1.97
2022-12-11T05:34:24.477Z,2.42
2022-12-11T05:36:52.937Z,2.54
2022-12-11T05:39:20.570Z,2.44
2022-12-11T05:44:38.041Z,2.89
2022-12-11T05:47:05.566Z,3.64
2022-12-11T05:49:32.640Z,3.37
2022-12-11T05:52:02.686Z,1.95
2022-12-11T05:54:30.364Z,2.35
2022-12-11T05:56:59.909Z,2.30
2022-12-11T05:59:28.268Z,2.51
2022-12-11T06:01:55.823Z,2.89
2022-12-11T06:04:25.452Z,3.58
2022-12-11T06:06:52.913Z,3.13
2022-12-11T06:09:22.862Z,1.88
2022-12-11T06:11:51.125Z,1.23
2022-12-11T06:14:18.056Z,0.15
2022-12-11T06:16:45.183Z,0.73
2022-12-11T06:19:12.878Z,0.28
2022-12-11T06:21:41.775Z,0.29
2022-12-11T06:24:10.999Z,0.64
2022-12-11T06:26:37.972Z,-0.27
2022-12-11T06:29:09.007Z,-0.47
2022-12-11T06:31:39.480Z,-0.06
2022-12-11T06:34:09.197Z,0.20
2022-12-11T06:36:41.107Z,0.27
2022-12-11T06:39:07.893Z,0.16
2022-12-11T06:41:37.919Z,-0.45
2022-12-11T06:44:07.151Z,-0.46
2022-12-11T06:46:34.627Z,-0.46
2022-12-11T06:49:02.180Z,-0.22
2022-12-11T06:51:34.922Z,-0.33
2022-12-11T06:54:04.095Z,-0.46
2022-12-11T06:56:31.606Z,0.02
2022-12-11T06:59:02.827Z,-0.25
2022-12-11T07:01:35.183Z,-0.27
2022-12-11T07:04:04.805Z,-0.44
2022-12-11T07:06:31.792Z,-0.72
2022-12-11T07:08:59.396Z,-0.92
2022-12-11T07:11:26.317Z,-0.86
2022-12-11T07:13:53.235Z,-0.87
2022-12-11T07:16:24.770Z,-0.99
2022-12-11T07:18:51.848Z,-1.43
2022-12-11T07:21:25.684Z,-1.42
2022-12-11T07:23:52.958Z,-1.59
2022-12-11T07:26:21.090Z,-1.53
2022-12-11T07:28:50.450Z,-1.59
2022-12-11T07:31:18.362Z,-1.71
2022-12-11T07:33:45.254Z,-1.68
2022-12-11T07:36:13.389Z,-1.84
2022-12-11T07:38:40.816Z,-1.98
2022-12-11T07:41:07.866Z,-2.07
2022-12-11T07:43:37.284Z,-1.97
2022-12-11T07:46:05.760Z,-1.92
2022-12-11T07:48:33.057Z,-2.04
2022-12-11T07:51:00.081Z,-1.93
2022-12-11T07:53:26.892Z,-1.93
2022-12-11T07:56:04.129Z,-1.87
2022-12-11T07:58:31.599Z,-1.83
2022-12-11T08:00:59.194Z,-1.67
2022-12-11T08:03:27.172Z,-1.58
2022-12-11T08:08:39.058Z,-1.73
2022-12-11T08:11:06.904Z,-1.82
2022-12-11T08:13:33.738Z,-1.89
2022-12-11T08:16:01.117Z,-1.79
2022-12-11T08:18:29.529Z,-1.80
2022-12-11T08:20:58.028Z,-1.86
2022-12-11T08:23:26.536Z,-1.82
2022-12-11T08:25:54.196Z,-1.66
2022-12-11T08:28:21.898Z,-1.63
2022-12-11T08:30:48.696Z,-1.52
2022-12-11T08:33:17.728Z,-1.43
2022-12-11T08:35:44.722Z,-1.55
2022-12-11T08:38:11.680Z,-1.63
2022-12-11T08:40:38.217Z,-1.60
2022-12-11T08:43:12.805Z,-1.65
2022-12-11T08:45:40.163Z,-1.22
2022-12-11T08:48:07.213Z,-1.36
2022-12-11T08:50:34.772Z,-1.44
2022-12-11T08:55:39.893Z,-1.30
2022-12-11T08:58:15.983Z,-1.28
2022-12-11T09:00:45.407Z,-1.20
2022-12-11T09:03:14.337Z,-1.00
2022-12-11T09:05:45.067Z,-0.95
2022-12-11T09:08:12.930Z,-1.08
2022-12-11T09:10:44.976Z,-0.89
2022-12-11T09:13:42.695Z,-0.90
2022-12-11T09:16:22.111Z,-0.81
2022-12-11T09:18:49.368Z,-0.75
2022-12-11T09:21:19.983Z,-0.74
2022-12-11T09:23:55.220Z,-0.77
2022-12-11T09:29:28.205Z,-0.64
2022-12-11T09:31:57.828Z,-0.52
2022-12-11T09:34:29.133Z,-0.26
2022-12-11T09:37:00.470Z,-0.08
2022-12-11T09:39:29.361Z,-0.10
2022-12-11T09:45:14.646Z,0.32
2022-12-11T09:47:44.091Z,0.15
2022-12-11T09:52:58.465Z,-0.06
2022-12-11T09:55:26.251Z,0.01
2022-12-11T09:57:54.769Z,1.08
2022-12-11T10:18:35.244Z,2.23
2022-12-11T11:25:17.994Z,3.64
2022-12-11T12:08:46.438Z,2.86
2022-12-11T12:11:13.918Z,3.05
2022-12-11T12:13:49.405Z,3.41
2022-12-11T12:16:50.590Z,2.09
2022-12-11T12:25:23.843Z,2.43
2022-12-11T12:27:57.327Z,3.81
2022-12-11T12:36:24.673Z,2.12
2022-12-11T12:38:52.133Z,1.56
2022-12-11T12:41:23.401Z,1.57
2022-12-11T12:43:50.675Z,1.75
2022-12-11T12:46:18.266Z,2.26
2022-12-11T12:48:47.413Z,2.21
2022-12-11T12:51:17.118Z,1.99
2022-12-11T12:56:40.471Z,1.67
2022-12-11T12:59:11.674Z,1.55
2022-12-11T13:01:45.536Z,1.73
2022-12-11T13:04:26.394Z,1.78
2022-12-11T13:07:01.292Z,2.03
2022-12-11T13:09:35.855Z,2.39
2022-12-11T13:14:54.428Z,2.60
2022-12-11T13:17:21.384Z,2.43
2022-12-11T13:19:53.062Z,3.10
2022-12-11T13:22:30.789Z,3.18
2022-12-11T13:25:00.669Z,3.72
2022-12-11T13:27:28.159Z,3.50
2022-12-11T13:29:55.945Z,3.37
2022-12-11T13:32:26.149Z,2.93
2022-12-11T13:34:53.015Z,2.80
2022-12-11T13:37:21.914Z,3.08
2022-12-11T13:39:51.532Z,3.76
2022-12-11T13:45:16.707Z,3.36
2022-12-11T13:47:43.756Z,3.07
2022-12-11T13:50:12.081Z,2.73
2022-12-11T13:52:39.851Z,2.41
2022-12-11T13:55:09.188Z,2.74
2022-12-11T13:57:38.003Z,2.39
2022-12-11T14:16:20.219Z,1.60
2022-12-11T14:18:53.114Z,1.53
2022-12-11T14:21:35.409Z,1.46
2022-12-11T14:24:31.895Z,1.64
2022-12-11T14:32:45.060Z,1.69
2022-12-11T15:05:49.755Z,0.88
2022-12-11T15:10:58.025Z,0.99
2022-12-11T15:13:28.051Z,0.97
2022-12-11T15:16:00.008Z,0.98
2022-12-11T15:18:26.682Z,1.11
2022-12-11T15:20:53.415Z,1.01
2022-12-11T15:23:24.151Z,0.80
2022-12-11T15:25:53.297Z,0.95
2022-12-11T15:28:21.014Z,1.27
2022-12-11T15:30:47.842Z,0.76
2022-12-11T15:33:15.588Z,0.89
2022-12-11T15:35:48.347Z,0.90
2022-12-11T15:38:19.712Z,0.35
2022-12-11T15:40:55.539Z,0.15
2022-12-11T15:43:31.639Z,-0.34
2022-12-11T15:46:05.124Z,-0.55
2022-12-11T15:48:37.304Z,-0.71
2022-12-11T15:51:08.725Z,-0.63
2022-12-11T15:53:35.834Z,-0.50
2022-12-11T15:56:04.665Z,-0.56
2022-12-11T16:01:46.721Z,-0.19
2022-12-11T16:04:14.410Z,-0.24
2022-12-11T16:06:41.292Z,-0.35
2022-12-11T16:09:11.525Z,-0.17
2022-12-11T16:11:44.814Z,-0.14
2022-12-11T16:14:12.099Z,-0.08
2022-12-11T16:22:50.113Z,-0.32
2022-12-11T16:31:01.152Z,-1.14
2022-12-11T16:33:32.240Z,-1.03
2022-12-11T16:35:59.887Z,-0.96
2022-12-11T16:38:28.712Z,-1.03
2022-12-11T16:40:56.384Z,-1.06
2022-12-11T16:43:27.478Z,-0.98
2022-12-11T16:45:57.660Z,-0.84
2022-12-11T16:48:25.922Z,-1.14
2022-12-11T16:50:57.737Z,-1.23
2022-12-11T16:53:31.546Z,-1.15
2022-12-11T16:56:02.540Z,-0.93
2022-12-11T17:01:32.315Z,-0.73
2022-12-11T17:03:59.271Z,-0.96
2022-12-11T17:06:26.157Z,-0.98
2022-12-11T17:08:58.136Z,-0.91
2022-12-11T17:11:26.303Z,-1.16
2022-12-11T17:17:10.439Z,-1.37
2022-12-11T17:25:40.910Z,-1.10
2022-12-11T17:28:08.026Z,-1.24
2022-12-11T17:33:25.291Z,-1.04
2022-12-11T17:35:52.219Z,-1.26
2022-12-11T17:38:19.920Z,-1.26
2022-12-11T17:40:49.730Z,-1.09
2022-12-11T17:43:21.303Z,-0.89
2022-12-11T17:45:50.146Z,-0.92
2022-12-11T17:48:20.365Z,-0.83
2022-12-11T17:50:53.492Z,-0.69
2022-12-11T17:56:05.224Z,-0.84
2022-12-11T17:58:35.522Z,-0.49
2022-12-11T18:01:07.906Z,-0.11
2022-12-11T18:03:40.214Z,-0.12
2022-12-11T18:09:29.986Z,0.02
2022-12-11T18:12:02.546Z,0.12
2022-12-11T18:14:29.378Z,0.43
2022-12-11T18:16:55.874Z,0.40
2022-12-11T18:19:23.336Z,0.36
2022-12-11T18:21:52.477Z,0.28
2022-12-11T18:24:19.761Z,0.23
2022-12-11T18:26:49.974Z,-0.20
2022-12-11T18:29:16.649Z,-0.14
2022-12-11T18:31:43.772Z,-0.35
2022-12-11T18:34:14.261Z,-0.17
2022-12-11T18:39:27.191Z,0.35
2022-12-11T18:42:30.687Z,0.18
2022-12-11T18:44:42.208Z,0.08
2022-12-11T18:47:17.834Z,0.16
2022-12-11T18:49:46.903Z,0.12
2022-12-11T18:52:13.808Z,-0.11
2022-12-11T18:54:40.887Z,-0.12
2022-12-11T18:57:07.874Z,-0.42
2022-12-11T18:59:34.922Z,-0.65
2022-12-11T19:14:23.476Z,-0.52
2022-12-11T19:17:03.485Z,-0.75
2022-12-11T19:41:33.403Z,0.67
2022-12-11T19:50:33.400Z,0.64
2022-12-11T19:53:01.204Z,0.22
2022-12-11T19:55:34.169Z,-0.16
2022-12-11T19:58:05.529Z,0.34
2022-12-11T20:00:32.714Z,0.42
2022-12-11T20:05:56.719Z,1.98
2022-12-11T20:08:46.958Z,1.33
2022-12-11T20:11:18.242Z,1.89
2022-12-11T20:14:17.340Z,1.16
2022-12-11T20:19:37.047Z,1.54
2022-12-11T20:22:04.604Z,1.68
2022-12-11T20:30:50.122Z,1.64
2022-12-11T20:36:29.896Z,1.85
2022-12-11T20:38:58.303Z,1.24
2022-12-11T20:41:28.937Z,0.93
2022-12-11T20:43:58.606Z,0.66
2022-12-11T20:46:27.649Z,0.85
2022-12-11T20:48:57.370Z,1.19
2022-12-11T20:51:26.254Z,1.63
2022-12-11T20:53:53.552Z,0.73
2022-12-11T20:56:20.968Z,0.33
2022-12-11T20:58:49.670Z,0.59
2022-12-11T21:01:16.245Z,1.04
2022-12-11T21:03:43.217Z,1.46
2022-12-11T21:06:12.961Z,1.94
2022-12-11T21:08:45.870Z,1.05
2022-12-11T21:14:09.363Z,1.38
2022-12-11T21:16:39.192Z,2.27
2022-12-11T21:19:15.215Z,2.11
2022-12-11T21:25:02.446Z,1.45
2022-12-11T21:27:31.654Z,1.06
2022-12-11T21:30:02.208Z,1.07
2022-12-11T21:32:34.248Z,1.19
2022-12-11T21:35:01.600Z,1.31
2022-12-11T21:37:29.171Z,1.13
2022-12-11T21:39:57.645Z,0.71
2022-12-11T21:42:24.717Z,0.57
2022-12-11T21:47:38.832Z,1.24
2022-12-11T21:50:07.089Z,1.15
2022-12-11T21:52:35.691Z,0.79
2022-12-11T21:55:04.954Z,0.75
2022-12-11T21:57:32.582Z,0.99
2022-12-11T22:03:15.242Z,0.69
2022-12-11T22:28:11.181Z,1.84
2022-12-11T22:30:38.420Z,2.01
2022-12-11T22:33:05.071Z,1.73
2022-12-11T22:35:31.704Z,0.91
2022-12-11T22:38:02.526Z,1.38
2022-12-11T22:40:38.471Z,1.62
2022-12-11T22:43:14.873Z,1.89
2022-12-11T22:45:45.812Z,1.07
2022-12-11T22:48:13.381Z,1.04
2022-12-11T22:50:41.826Z,0.95
2022-12-11T22:59:23.197Z,2.01
2022-12-11T23:01:50.084Z,1.73
2022-12-11T23:04:19.808Z,2.04
2022-12-11T23:06:46.664Z,2.27
2022-12-11T23:09:17.711Z,2.16
2022-12-11T23:26:41.469Z,2.73
2022-12-11T23:29:08.651Z,2.32
2022-12-11T23:31:35.681Z,2.24
2022-12-11T23:34:04.909Z,2.31
2022-12-11T23:36:39.130Z,2.01
2022-12-11T23:39:09.030Z,1.47
2022-12-11T23:44:38.761Z,0.59
2022-12-11T23:50:14.650Z,0.54
2022-12-11T23:55:26.866Z,1.13
2022-12-11T23:57:54.504Z,1.23
